sensor_id;sensor_type;location;lat;lon;timestamp;P1;durP1;ratioP1;P2;durP2;ratioP2
20824;SDS011;10573;50.936;6.978;2023-04-03T11:05:45;3.07;;;0.60;;
20824;SDS011;10573;50.936;6.978;2023-04-03T11:10:44;2.90;;;0.77;;
20824;SDS011;10573;50.936;6.978;2023-04-03T11:15:48;1.27;;;0.50;;
20824;SDS011;10573;50.936;6.978;2023-04-03T11:18:23;2.13;;;0.60;;
20824;SDS011;10573;50.936;6.978;2023-04-03T11:20:59;1.00;;;0.53;;
20824;SDS011;10573;50.936;6.978;2023-04-03T11:23:30;1.23;;;0.57;;
20824;SDS011;10573;50.936;6.978;2023-04-03T11:26:07;1.57;;;0.60;;
20824;SDS011;10573;50.936;6.978;2023-04-03T11:28:40;1.47;;;0.70;;
20824;SDS011;10573;50.936;6.978;2023-04-03T11:31:19;3.03;;;0.80;;
20824;SDS011;10573;50.936;6.978;2023-04-03T11:36:48;1.07;;;0.50;;
20824;SDS011;10573;50.936;6.978;2023-04-03T11:39:31;1.90;;;0.70;;
20824;SDS011;10573;50.936;6.978;2023-04-03T11:42:25;2.73;;;0.70;;
20824;SDS011;10573;50.936;6.978;2023-04-03T11:47:55;2.10;;;0.70;;
20824;SDS011;10573;50.936;6.978;2023-04-03T11:52:58;1.73;;;0.60;;
20824;SDS011;10573;50.936;6.978;2023-04-03T12:08:50;1.92;;;0.60;;
20824;SDS011;10573;50.936;6.978;2023-04-03T12:11:31;0.70;;;0.40;;
20824;SDS011;10573;50.936;6.978;2023-04-03T12:26:41;1.67;;;0.70;;
20824;SDS011;10573;50.936;6.978;2023-04-03T12:29:21;0.50;;;0.50;;
20824;SDS011;10573;50.936;6.978;2023-04-03T12:40:01;2.03;;;0.50;;
20824;SDS011;10573;50.936;6.978;2023-04-03T12:45:21;1.33;;;0.90;;
20824;SDS011;10573;50.936;6.978;2023-04-03T12:47:55;1.25;;;0.60;;
20824;SDS011;10573;50.936;6.978;2023-04-03T12:50:25;2.47;;;0.63;;
20824;SDS011;10573;50.936;6.978;2023-04-03T12:53:02;1.27;;;0.60;;
20824;SDS011;10573;50.936;6.978;2023-04-03T12:55:29;1.20;;;0.60;;
20824;SDS011;10573;50.936;6.978;2023-04-03T12:57:55;0.98;;;0.70;;
20824;SDS011;10573;50.936;6.978;2023-04-03T13:00:22;1.95;;;0.60;;
20824;SDS011;10573;50.936;6.978;2023-04-03T13:02:54;1.63;;;0.50;;
20824;SDS011;10573;50.936;6.978;2023-04-03T13:05:21;1.20;;;0.60;;
20824;SDS011;10573;50.936;6.978;2023-04-03T13:08:00;1.48;;;0.50;;
20824;SDS011;10573;50.936;6.978;2023-04-03T13:10:28;1.05;;;0.60;;
20824;SDS011;10573;50.936;6.978;2023-04-03T13:12:58;3.90;;;0.70;;
20824;SDS011;10573;50.936;6.978;2023-04-03T13:15:43;2.42;;;0.57;;
20824;SDS011;10573;50.936;6.978;2023-04-03T13:21:04;3.17;;;0.60;;
20824;SDS011;10573;50.936;6.978;2023-04-03T13:23:34;1.50;;;0.40;;
20824;SDS011;10573;50.936;6.978;2023-04-03T13:26:04;0.85;;;0.50;;
20824;SDS011;10573;50.936;6.978;2023-04-03T13:28:31;2.10;;;0.93;;
20824;SDS011;10573;50.936;6.978;2023-04-03T13:34:02;1.20;;;0.70;;
20824;SDS011;10573;50.936;6.978;2023-04-03T13:36:33;3.33;;;1.80;;
20824;SDS011;10573;50.936;6.978;2023-04-03T13:39:02;2.08;;;1.30;;
20824;SDS011;10573;50.936;6.978;2023-04-03T13:41:53;1.15;;;0.40;;
20824;SDS011;10573;50.936;6.978;2023-04-03T13:46:46;2.05;;;0.50;;
20824;SDS011;10573;50.936;6.978;2023-04-03T13:49:27;3.88;;;0.57;;
20824;SDS011;10573;50.936;6.978;2023-04-03T13:51:53;1.15;;;0.50;;
20824;SDS011;10573;50.936;6.978;2023-04-03T13:54:22;1.10;;;0.60;;
20824;SDS011;10573;50.936;6.978;2023-04-03T13:56:53;1.23;;;0.60;;
20824;SDS011;10573;50.936;6.978;2023-04-03T13:59:31;2.25;;;0.90;;
20824;SDS011;10573;50.936;6.978;2023-04-03T14:04:30;2.67;;;1.45;;
20824;SDS011;10573;50.936;6.978;2023-04-03T14:07:02;2.45;;;1.17;;
20824;SDS011;10573;50.936;6.978;2023-04-03T14:09:28;3.13;;;0.75;;
20824;SDS011;10573;50.936;6.978;2023-04-03T14:11:59;1.33;;;0.68;;
20824;SDS011;10573;50.936;6.978;2023-04-03T14:14:31;2.35;;;0.80;;
20824;SDS011;10573;50.936;6.978;2023-04-03T14:16:59;1.40;;;0.70;;
20824;SDS011;10573;50.936;6.978;2023-04-03T14:19:27;2.63;;;0.85;;
20824;SDS011;10573;50.936;6.978;2023-04-03T14:21:56;1.23;;;0.70;;
20824;SDS011;10573;50.936;6.978;2023-04-03T14:24:22;2.60;;;0.80;;
20824;SDS011;10573;50.936;6.978;2023-04-03T14:26:49;1.40;;;0.90;;
20824;SDS011;10573;50.936;6.978;2023-04-03T14:29:17;1.50;;;0.70;;
20824;SDS011;10573;50.936;6.978;2023-04-03T14:31:44;2.80;;;0.75;;
20824;SDS011;10573;50.936;6.978;2023-04-03T14:34:13;2.25;;;0.80;;
20824;SDS011;10573;50.936;6.978;2023-04-03T14:36:40;1.30;;;0.70;;
20824;SDS011;10573;50.936;6.978;2023-04-03T14:39:07;2.85;;;0.73;;
20824;SDS011;10573;50.936;6.978;2023-04-03T14:41:35;1.70;;;0.70;;
20824;SDS011;10573;50.936;6.978;2023-04-03T14:44:01;2.15;;;0.68;;
20824;SDS011;10573;50.936;6.978;2023-04-03T14:46:31;1.60;;;0.68;;
20824;SDS011;10573;50.936;6.978;2023-04-03T14:49:00;1.10;;;1.00;;
20824;SDS011;10573;50.936;6.978;2023-04-03T14:51:25;3.17;;;0.60;;
20824;SDS011;10573;50.936;6.978;2023-04-03T14:53:51;2.53;;;0.98;;
20824;SDS011;10573;50.936;6.978;2023-04-03T14:56:22;0.75;;;0.63;;
20824;SDS011;10573;50.936;6.978;2023-04-03T14:58:52;1.83;;;0.90;;
20824;SDS011;10573;50.936;6.978;2023-04-03T15:01:20;1.88;;;0.82;;
20824;SDS011;10573;50.936;6.978;2023-04-03T15:03:46;2.85;;;0.88;;
20824;SDS011;10573;50.936;6.978;2023-04-03T15:06:12;1.08;;;0.60;;
20824;SDS011;10573;50.936;6.978;2023-04-03T15:08:38;2.10;;;1.00;;
20824;SDS011;10573;50.936;6.978;2023-04-03T15:11:06;0.88;;;0.70;;
20824;SDS011;10573;50.936;6.978;2023-04-03T15:13:31;1.30;;;0.82;;
20824;SDS011;10573;50.936;6.978;2023-04-03T15:15:57;1.77;;;0.80;;
20824;SDS011;10573;50.936;6.978;2023-04-03T15:18:23;1.65;;;0.70;;
20824;SDS011;10573;50.936;6.978;2023-04-03T15:20:51;2.20;;;1.25;;
20824;SDS011;10573;50.936;6.978;2023-04-03T15:23:20;2.15;;;0.95;;
20824;SDS011;10573;50.936;6.978;2023-04-03T15:28:18;3.03;;;0.90;;
20824;SDS011;10573;50.936;6.978;2023-04-03T15:30:48;3.95;;;0.70;;
20824;SDS011;10573;50.936;6.978;2023-04-03T15:33:14;2.00;;;0.73;;
20824;SDS011;10573;50.936;6.978;2023-04-03T15:35:40;1.38;;;0.70;;
20824;SDS011;10573;50.936;6.978;2023-04-03T16:50:53;5.30;;;1.00;;
20824;SDS011;10573;50.936;6.978;2023-04-03T16:53:19;2.70;;;1.20;;
20824;SDS011;10573;50.936;6.978;2023-04-03T16:55:49;3.37;;;1.40;;
20824;SDS011;10573;50.936;6.978;2023-04-03T16:58:16;2.38;;;0.98;;
20824;SDS011;10573;50.936;6.978;2023-04-03T17:00:42;4.63;;;1.33;;
20824;SDS011;10573;50.936;6.978;2023-04-03T17:03:07;1.37;;;1.10;;
20824;SDS011;10573;50.936;6.978;2023-04-03T17:05:33;3.60;;;0.97;;
20824;SDS011;10573;50.936;6.978;2023-04-03T17:07:59;3.10;;;0.90;;
20824;SDS011;10573;50.936;6.978;2023-04-03T17:10:25;2.00;;;0.90;;
20824;SDS011;10573;50.936;6.978;2023-04-03T17:12:51;4.03;;;0.97;;
20824;SDS011;10573;50.936;6.978;2023-04-03T17:15:17;1.63;;;0.90;;
20824;SDS011;10573;50.936;6.978;2023-04-03T17:17:43;2.57;;;1.50;;
20824;SDS011;10573;50.936;6.978;2023-04-03T17:20:09;4.03;;;1.20;;
20824;SDS011;10573;50.936;6.978;2023-04-03T17:22:35;2.27;;;0.90;;
20824;SDS011;10573;50.936;6.978;2023-04-03T17:25:01;4.33;;;1.03;;
20824;SDS011;10573;50.936;6.978;2023-04-03T17:27:27;1.83;;;1.23;;
20824;SDS011;10573;50.936;6.978;2023-04-03T17:29:52;3.43;;;0.90;;
20824;SDS011;10573;50.936;6.978;2023-04-03T17:32:19;1.90;;;1.20;;
20824;SDS011;10573;50.936;6.978;2023-04-03T17:34:45;2.83;;;0.97;;
20824;SDS011;10573;50.936;6.978;2023-04-03T17:37:11;1.65;;;1.00;;
20824;SDS011;10573;50.936;6.978;2023-04-03T17:39:37;1.73;;;1.17;;
20824;SDS011;10573;50.936;6.978;2023-04-03T17:42:03;9.10;;;1.03;;
20824;SDS011;10573;50.936;6.978;2023-04-03T17:44:28;3.40;;;1.20;;
20824;SDS011;10573;50.936;6.978;2023-04-03T17:46:54;2.33;;;1.10;;
20824;SDS011;10573;50.936;6.978;2023-04-03T17:49:19;1.93;;;1.00;;
20824;SDS011;10573;50.936;6.978;2023-04-03T17:51:46;3.20;;;1.10;;
20824;SDS011;10573;50.936;6.978;2023-04-03T17:54:12;1.20;;;0.90;;
20824;SDS011;10573;50.936;6.978;2023-04-03T17:56:37;1.60;;;1.00;;
20824;SDS011;10573;50.936;6.978;2023-04-03T17:59:03;5.73;;;1.10;;
20824;SDS011;10573;50.936;6.978;2023-04-03T18:01:32;5.10;;;1.23;;
20824;SDS011;10573;50.936;6.978;2023-04-03T18:04:01;2.87;;;1.03;;
20824;SDS011;10573;50.936;6.978;2023-04-03T18:06:32;1.40;;;0.80;;
20824;SDS011;10573;50.936;6.978;2023-04-03T18:09:04;2.70;;;1.20;;
20824;SDS011;10573;50.936;6.978;2023-04-03T18:11:32;1.30;;;0.90;;
20824;SDS011;10573;50.936;6.978;2023-04-03T18:13:59;2.50;;;1.13;;
20824;SDS011;10573;50.936;6.978;2023-04-03T18:16:27;4.30;;;1.20;;
20824;SDS011;10573;50.936;6.978;2023-04-03T18:18:52;2.97;;;1.10;;
20824;SDS011;10573;50.936;6.978;2023-04-03T18:21:18;4.10;;;1.10;;
20824;SDS011;10573;50.936;6.978;2023-04-03T18:23:46;2.00;;;1.00;;
20824;SDS011;10573;50.936;6.978;2023-04-03T18:26:15;2.37;;;1.00;;
20824;SDS011;10573;50.936;6.978;2023-04-03T18:28:42;1.83;;;1.20;;
20824;SDS011;10573;50.936;6.978;2023-04-03T18:31:11;2.53;;;1.13;;
20824;SDS011;10573;50.936;6.978;2023-04-03T18:33:40;6.97;;;1.40;;
20824;SDS011;10573;50.936;6.978;2023-04-03T18:36:06;4.10;;;1.30;;
20824;SDS011;10573;50.936;6.978;2023-04-03T18:38:32;3.63;;;1.40;;
20824;SDS011;10573;50.936;6.978;2023-04-03T18:40:58;2.87;;;1.70;;
20824;SDS011;10573;50.936;6.978;2023-04-03T18:43:25;2.47;;;1.37;;
20824;SDS011;10573;50.936;6.978;2023-04-03T18:45:51;4.07;;;1.50;;
20824;SDS011;10573;50.936;6.978;2023-04-03T18:48:17;1.57;;;1.37;;
20824;SDS011;10573;50.936;6.978;2023-04-03T18:50:43;4.57;;;1.30;;
20824;SDS011;10573;50.936;6.978;2023-04-03T18:53:09;3.23;;;1.63;;
20824;SDS011;10573;50.936;6.978;2023-04-03T18:55:34;3.73;;;2.00;;
20824;SDS011;10573;50.936;6.978;2023-04-03T18:58:00;3.13;;;1.33;;
20824;SDS011;10573;50.936;6.978;2023-04-03T19:00:25;2.10;;;1.20;;
20824;SDS011;10573;50.936;6.978;2023-04-03T19:02:51;3.47;;;1.30;;
20824;SDS011;10573;50.936;6.978;2023-04-03T19:05:17;2.70;;;1.60;;
20824;SDS011;10573;50.936;6.978;2023-04-03T19:07:43;5.33;;;1.40;;
20824;SDS011;10573;50.936;6.978;2023-04-03T19:10:13;2.97;;;1.43;;
20824;SDS011;10573;50.936;6.978;2023-04-03T19:12:44;3.80;;;1.43;;
20824;SDS011;10573;50.936;6.978;2023-04-03T19:15:13;1.77;;;1.27;;
20824;SDS011;10573;50.936;6.978;2023-04-03T19:17:40;3.60;;;1.30;;
20824;SDS011;10573;50.936;6.978;2023-04-03T19:20:07;2.90;;;1.10;;
20824;SDS011;10573;50.936;6.978;2023-04-03T19:22:33;1.27;;;1.03;;
20824;SDS011;10573;50.936;6.978;2023-04-03T19:24:58;3.13;;;1.03;;
20824;SDS011;10573;50.936;6.978;2023-04-03T19:27:24;2.93;;;1.50;;
20824;SDS011;10573;50.936;6.978;2023-04-03T19:29:49;5.50;;;1.30;;
20824;SDS011;10573;50.936;6.978;2023-04-03T19:32:15;5.97;;;1.80;;
20824;SDS011;10573;50.936;6.978;2023-04-03T19:34:40;3.77;;;1.50;;
20824;SDS011;10573;50.936;6.978;2023-04-03T19:37:06;2.43;;;1.50;;
20824;SDS011;10573;50.936;6.978;2023-04-03T19:39:31;2.57;;;1.30;;
20824;SDS011;10573;50.936;6.978;2023-04-03T19:41:59;3.70;;;1.40;;
20824;SDS011;10573;50.936;6.978;2023-04-03T19:44:27;6.07;;;1.30;;
20824;SDS011;10573;50.936;6.978;2023-04-03T19:46:53;4.27;;;1.30;;
20824;SDS011;10573;50.936;6.978;2023-04-03T19:49:19;3.47;;;1.07;;
20824;SDS011;10573;50.936;6.978;2023-04-03T19:51:44;2.13;;;1.40;;
20824;SDS011;10573;50.936;6.978;2023-04-03T19:54:09;1.70;;;1.30;;
20824;SDS011;10573;50.936;6.978;2023-04-03T19:56:35;5.07;;;1.50;;
20824;SDS011;10573;50.936;6.978;2023-04-03T19:59:01;4.73;;;1.70;;
20824;SDS011;10573;50.936;6.978;2023-04-03T20:01:26;5.20;;;1.80;;
20824;SDS011;10573;50.936;6.978;2023-04-03T20:03:53;9.63;;;3.27;;
20824;SDS011;10573;50.936;6.978;2023-04-03T20:06:19;9.77;;;4.10;;
20824;SDS011;10573;50.936;6.978;2023-04-03T20:08:45;10.67;;;3.40;;
20824;SDS011;10573;50.936;6.978;2023-04-03T20:11:11;5.40;;;2.07;;
20824;SDS011;10573;50.936;6.978;2023-04-03T20:13:36;6.63;;;2.50;;
20824;SDS011;10573;50.936;6.978;2023-04-03T20:16:05;4.43;;;2.30;;
20824;SDS011;10573;50.936;6.978;2023-04-03T20:18:32;3.07;;;1.73;;
20824;SDS011;10573;50.936;6.978;2023-04-03T20:20:59;2.93;;;1.80;;
20824;SDS011;10573;50.936;6.978;2023-04-03T20:23:26;7.53;;;3.20;;
20824;SDS011;10573;50.936;6.978;2023-04-03T20:25:52;4.73;;;2.20;;
20824;SDS011;10573;50.936;6.978;2023-04-03T20:28:20;9.03;;;3.00;;
20824;SDS011;10573;50.936;6.978;2023-04-03T20:30:46;6.67;;;2.80;;
20824;SDS011;10573;50.936;6.978;2023-04-03T20:33:13;7.63;;;2.90;;
20824;SDS011;10573;50.936;6.978;2023-04-03T20:35:39;6.20;;;3.13;;
20824;SDS011;10573;50.936;6.978;2023-04-03T20:38:05;3.87;;;1.87;;
20824;SDS011;10573;50.936;6.978;2023-04-03T20:40:31;4.47;;;2.37;;
20824;SDS011;10573;50.936;6.978;2023-04-03T20:42:58;3.53;;;2.30;;
20824;SDS011;10573;50.936;6.978;2023-04-03T20:45:23;5.10;;;2.20;;
20824;SDS011;10573;50.936;6.978;2023-04-03T20:47:50;5.57;;;2.37;;
20824;SDS011;10573;50.936;6.978;2023-04-03T20:50:16;7.10;;;1.90;;
20824;SDS011;10573;50.936;6.978;2023-04-03T20:52:42;9.33;;;2.17;;
20824;SDS011;10573;50.936;6.978;2023-04-03T20:55:08;6.53;;;2.33;;
20824;SDS011;10573;50.936;6.978;2023-04-03T20:57:34;5.73;;;1.90;;
20824;SDS011;10573;50.936;6.978;2023-04-03T21:00:00;5.87;;;2.73;;
20824;SDS011;10573;50.936;6.978;2023-04-03T21:02:30;6.57;;;2.20;;
20824;SDS011;10573;50.936;6.978;2023-04-03T21:04:57;2.97;;;1.73;;
20824;SDS011;10573;50.936;6.978;2023-04-03T21:21:36;3.90;;;1.87;;
20824;SDS011;10573;50.936;6.978;2023-04-03T21:24:03;5.27;;;2.10;;
20824;SDS011;10573;50.936;6.978;2023-04-03T21:26:31;6.53;;;2.30;;
20824;SDS011;10573;50.936;6.978;2023-04-03T21:28:58;3.40;;;1.90;;
20824;SDS011;10573;50.936;6.978;2023-04-03T21:31:24;4.43;;;1.50;;
20824;SDS011;10573;50.936;6.978;2023-04-03T21:34:29;3.10;;;1.70;;
20824;SDS011;10573;50.936;6.978;2023-04-03T21:37:02;8.57;;;2.17;;
20824;SDS011;10573;50.936;6.978;2023-04-03T21:39:29;7.63;;;2.90;;
20824;SDS011;10573;50.936;6.978;2023-04-03T21:41:55;5.60;;;2.93;;
20824;SDS011;10573;50.936;6.978;2023-04-03T21:44:20;14.80;;;5.93;;
20824;SDS011;10573;50.936;6.978;2023-04-03T21:46:46;6.43;;;3.40;;
20824;SDS011;10573;50.936;6.978;2023-04-03T21:49:13;9.43;;;4.17;;
20824;SDS011;10573;50.936;6.978;2023-04-03T21:51:39;7.63;;;3.50;;
20824;SDS011;10573;50.936;6.978;2023-04-03T21:54:06;12.27;;;4.00;;
20824;SDS011;10573;50.936;6.978;2023-04-03T21:56:31;8.93;;;3.90;;
20824;SDS011;10573;50.936;6.978;2023-04-03T21:58:59;7.33;;;3.03;;
20824;SDS011;10573;50.936;6.978;2023-04-03T22:01:25;7.27;;;3.60;;
20824;SDS011;10573;50.936;6.978;2023-04-03T22:03:51;5.87;;;2.43;;
20824;SDS011;10573;50.936;6.978;2023-04-03T22:06:16;4.97;;;2.47;;
20824;SDS011;10573;50.936;6.978;2023-04-03T22:08:42;7.13;;;2.43;;
20824;SDS011;10573;50.936;6.978;2023-04-03T22:11:08;4.23;;;2.10;;
20824;SDS011;10573;50.936;6.978;2023-04-03T22:13:37;6.20;;;2.40;;
20824;SDS011;10573;50.936;6.978;2023-04-03T22:16:03;3.77;;;1.50;;
20824;SDS011;10573;50.936;6.978;2023-04-03T22:18:28;6.20;;;1.73;;
20824;SDS011;10573;50.936;6.978;2023-04-03T22:20:54;3.03;;;1.50;;
20824;SDS011;10573;50.936;6.978;2023-04-03T22:23:23;7.30;;;2.33;;
20824;SDS011;10573;50.936;6.978;2023-04-03T22:26:06;2.83;;;1.50;;
20824;SDS011;10573;50.936;6.978;2023-04-03T22:28:34;2.63;;;1.40;;
20824;SDS011;10573;50.936;6.978;2023-04-03T22:31:02;3.57;;;1.70;;
20824;SDS011;10573;50.936;6.978;2023-04-03T22:33:28;3.43;;;1.70;;
20824;SDS011;10573;50.936;6.978;2023-04-03T22:35:55;2.37;;;1.30;;
20824;SDS011;10573;50.936;6.978;2023-04-03T22:38:20;4.63;;;1.67;;
20824;SDS011;10573;50.936;6.978;2023-04-03T22:40:46;3.17;;;1.70;;
20824;SDS011;10573;50.936;6.978;2023-04-03T22:43:12;4.07;;;1.80;;
20824;SDS011;10573;50.936;6.978;2023-04-03T22:45:46;3.37;;;1.57;;
20824;SDS011;10573;50.936;6.978;2023-04-03T22:48:12;5.83;;;1.40;;
20824;SDS011;10573;50.936;6.978;2023-04-03T22:50:39;4.20;;;1.60;;
20824;SDS011;10573;50.936;6.978;2023-04-03T22:53:04;1.80;;;1.20;;
20824;SDS011;10573;50.936;6.978;2023-04-03T22:55:30;7.40;;;1.50;;
20824;SDS011;10573;50.936;6.978;2023-04-03T22:57:55;3.33;;;1.40;;
20824;SDS011;10573;50.936;6.978;2023-04-03T23:00:21;7.07;;;1.90;;
20824;SDS011;10573;50.936;6.978;2023-04-03T23:02:46;5.40;;;1.50;;
20824;SDS011;10573;50.936;6.978;2023-04-03T23:05:12;6.00;;;1.47;;
20824;SDS011;10573;50.936;6.978;2023-04-03T23:07:37;3.63;;;1.50;;
20824;SDS011;10573;50.936;6.978;2023-04-03T23:10:03;3.83;;;1.43;;
20824;SDS011;10573;50.936;6.978;2023-04-03T23:12:29;6.70;;;1.40;;
20824;SDS011;10573;50.936;6.978;2023-04-03T23:14:54;5.97;;;1.80;;
20824;SDS011;10573;50.936;6.978;2023-04-03T23:17:20;3.10;;;1.50;;
20824;SDS011;10573;50.936;6.978;2023-04-03T23:19:45;1.97;;;1.63;;
20824;SDS011;10573;50.936;6.978;2023-04-03T23:22:10;2.87;;;1.43;;
20824;SDS011;10573;50.936;6.978;2023-04-03T23:24:36;4.13;;;1.50;;
20824;SDS011;10573;50.936;6.978;2023-04-03T23:27:03;3.57;;;1.60;;
20824;SDS011;10573;50.936;6.978;2023-04-03T23:29:28;2.93;;;1.23;;
20824;SDS011;10573;50.936;6.978;2023-04-03T23:31:54;4.70;;;1.73;;
20824;SDS011;10573;50.936;6.978;2023-04-03T23:34:20;3.00;;;1.40;;
20824;SDS011;10573;50.936;6.978;2023-04-03T23:36:45;3.47;;;1.67;;
20824;SDS011;10573;50.936;6.978;2023-04-03T23:39:11;2.90;;;1.17;;
20824;SDS011;10573;50.936;6.978;2023-04-03T23:41:36;3.70;;;1.40;;
20824;SDS011;10573;50.936;6.978;2023-04-03T23:44:02;4.63;;;1.30;;
20824;SDS011;10573;50.936;6.978;2023-04-03T23:46:27;3.00;;;1.30;;
20824;SDS011;10573;50.936;6.978;2023-04-03T23:48:53;4.23;;;1.60;;
20824;SDS011;10573;50.936;6.978;2023-04-03T23:51:18;4.13;;;1.70;;
20824;SDS011;10573;50.936;6.978;2023-04-03T23:53:43;7.30;;;1.60;;
20824;SDS011;10573;50.936;6.978;2023-04-03T23:56:09;5.70;;;1.60;;
20824;SDS011;10573;50.936;6.978;2023-04-03T23:58:37;3.37;;;1.40;;
